Lynn Lake Airport
CYYL : now visible

Airfield :











YOU CAN JOIN US ON...

 
LOGIN :

Register | Disclaimer

   EN    FR    IT 

 









Legend :    VFR   Marginal VFR   IFR   Intensive IFR   Very Intensive IFR
Visi :
Ceiling :
>= 8 km
>= 3000ft
5 to 8 km
1000 to 3000 ft
1500m to 5 km
500 to 1000 ft
800 to 1500m
200 to 500 ft
< 800m
< 200 ft
Symbols :   Thunderstorms  Fog  Heavy snow  Heavy precipitations  Wind > 20 kt






- Airport Elevation : 1170 ft
- IATA code : YYL


CYYL - Lynn Lake

CURRENT METAR :
  • 240900Z AUTO 32006KT 300V360 9SM -SN OVC037 M07/M11 A3025 RMK SLP276

EXPIRED METARs :
  • 240836Z AUTO 32007KT 9SM -SN OVC037 M07/M11 A3026 RMK SLP277
  • 240811Z AUTO 33007KT 9SM -SN OVC037 M07/M11 A3026 RMK SLP276
  • 240752Z AUTO 31006KT 9SM OVC039 M07/M11 A3026 RMK SLP277
  • 240742Z AUTO 32006KT 270V340 9SM -SN OVC039 M07/M11 A3026 RMK SLP277
  • 240712Z AUTO 31007KT 9SM -SN OVC039 M07/M10 A3025 RMK SLP276
  • 240709Z AUTO 31008KT 9SM OVC039 M07/M10 A3025 RMK SLP276

TAF TAF CYYL
Valid from the 24 at 07:00 until the 24 at 19:00 UTC


240638Z 2407/2419 34008KT P6SM OVC040
TEMPO 2407/2419 21/2SM -SHSN OVC020 RMK FCST BASED ON AUTO OBS. NXT FCST BY 241300Z
CZWG FIR / North America



MET'MAP, your aeronautical weather chart ! - Copyright ORBIFLY December 2007 - Disclaimer

ORBIFLY MET'MAP TEAM :

Programming & Development : Alexandra Zaïnal
Concept & original design : Baudouin d'Aumeries
Assistance for programming : Marc-Olivier Méhu
Technical & hardware support : Manuel Goepfert

Contact : metmap@orbifly.com




SOURCES & CREDITS :

   NOAA       Earth
Advisory